Air Resources Laboratory banner image
Air Resources Laboratory web site National Oceanic and Atmospheric Administration (NOAA)

wv metar


KBKW 110751Z AUTO 24007KT 10SM OVC004 19/18 A3015 RMK AO2 SLP172 T01890183=
KBLF 110752Z AUTO 26009KT 10SM OVC021 18/17 A3018 RMK AO2 RAB31E44 SLP183 P0000
 T01780172=
KCKB 110753Z AUTO 30004KT 10SM -RA BKN005 BKN013 OVC021 22/21 A3006 RMK AO2
 RAB23 CIG 002V008 SLP163 P0000 T02220206=
KEKN 110751Z AUTO 00000KT 7SM -RA SCT004 BKN016 OVC023 21/20 A3009 RMK AO2
 RAB33 SLP177 P0000 T02110200=
KHLG 110753Z AUTO 30003KT 1/2SM R03/P6000FT FG VV002 18/17 A3007 RMK AO2 SLP179
 T01830172=
KHTS 110751Z 21004KT 10SM BKN043 OVC055 21/20 A3007 RMK AO2 RAE0655 SLP176
 P0001 T02110200 $=
KMGW 110753Z AUTO 34003KT 10SM OVC026 21/19 A3007 RMK AO2 SLP174 T02110194=
KMRB 110753Z AUTO 18003KT 10SM BKN080 21/21 A2999 RMK AO2 SLP150 T02110206=
KPKB 110753Z AUTO 00000KT 8SM BKN047 OVC055 21/20 A3007 RMK AO2 SLP177
 T02060200=